Terminal Aerodrome Forecast
Issued by NWS

Home | Current Version | Previous Version | Text Only | Print | Product List | Glossary Off
Versions: 1 2 3 4 5 6 7 8 9 10 11 12 13 14 15 16 17 18 19 20 21 22 23 24 25 26 27 28 29 30 31

000
FTUS45 KGGW 191516 AAA
TAFGDV
TAF AMD
KGDV 191516Z 1915/2012 06008KT 2SM BR BKN002
      TEMPO 1915/1918 1SM BR OVC002
     FM191900 15005KT P6SM SCT005 BKN150
     FM200200 26004KT P6SM OVC090
     FM200600 27005KT P6SM VCSH OVC090
     FM201100 27008KT P6SM BKN045=

USA.gov is the U.S. government's official web portal to all federal, state and local government web resources and services.